Current Weather

Nawabshah

Nawabshah, Pakistan (OPNH)

Report from: Friday, April 19, 2024 2:00 PM PKT
Current time: Friday, April 19, 2024 2:47 PM PKT

Nearby weather – Weather history – Daily summaries
Weather forecast

Temperature37.0°C (98.6°F)
Heat index38.0°C (100.5°F)
Dew point17.0°C (62.6°F)
Winds 12 kts (6.2 m/s, 13.8 mph) South (180°)
Visibility4.3 mi. (7 km)
Clouds Scattered clouds 3,500 ft. (1,067 m)
Altimeter29.62 in.Hg (1003 mB)
Relative humidity31 %
Density altitude3,095 ft. (943 m)
Flight conditions Marginal Visual Meteorological Conditions
Raw dataOPNH 190900Z 18012KT 7000 SCT035 37/17 Q1003
An error has occurred. This application may no longer respond until reloaded. Reload 🗙